KLM427 EHAM - OMDB

(1/3) > >>

Jonas:
Departure=           EHAM
Arrival=             OMDB
Alternate=           OMSJ
FlightHours=         5
FlightMinutes=       48
FuelHours=           7
FuelMinutes=         21
Airspeed=            564
Altitude=            37000
Route=N0414F330 ARNEM UL620 CND UL851 ADINA UL851 LAGIR UL851 KUGOS UW704 CRM UT34 SRT UT37 KABAN/N0534F370 R784 NOLDO UP975 SIDAD R784 EGMID B416 PEBAT G666 DESDI



(FPL-KLM427-IS
-B772/H-SDHIJPRWXY/SD
-EHAM0615
-OMDB1145 OMSJ
-EET/EDVV0013 EDUU0029 EDBB0033 LKAA0046 LZBB0108 LHCC0120 LRBB0130
UKFV0221 LTAA0240 ORBB0340 OKAC0445 OIIX0454 OMAE0530 REG/PHBVB
SEL/JLCR OPR/KLM DAT/SV RMK/AGCS TCAS EQPD DOF/061202 RVR/75
ORGN/EHAMKLMF)


METAR EHAM 061655Z 33015KT 9999 SCT020 06/01 Q1004 NOSIG


METAR OMDB 062300Z 17007KT 9999 SCT025 17/13 Q1016 NOSIG






























































alexander96:
*Mållös!*  Snyggaste bilderna hittills!

//alexander

niclasm:
Riktigt snygga bilder!
Bild 4 hade en härlig stämning med gräset och planet!

Gärna fler bilder om du har

//Niclas

airbus380:
Fin fina bilder

Är marktexture Ground Pro?

/Serdar

Jonas:
Quote

Fin fina bilder

Är marktexture Ground Pro?

/Serdar


NL2000 och Ground Environment Professional.

Navigation

Up one level

Next page